Time;durP1;ratioP1;P1;durP2;ratioP2;P2;SDS_P1;SDS_P2;PMS_P1;PMS_P2;Temp;Humidity;BMP_temperature;BMP_pressure;BME280_temperature;BME280_humidity;BME280_pressure;Samples;Min_cycle;Max_cycle;Signal;HPM_P1;HPM_P2
2022/09/30 08:45:52;;;;;;;10.83;9.00;;;41.10;4.80;;;;;;6212809;22;20440;-86
2022/09/30 08:49:12;;;;;;;8.47;7.77;;;40.90;3.80;;;;;;6213694;23;20535;-86
2022/09/30 08:51:53;;;;;;;9.53;8.40;;;40.70;3.10;;;;;;6212952;23;21017;-86
2022/09/30 08:54:24;;;;;;;11.47;8.70;;;40.60;2.80;;;;;;6187282;23;20381;-86
2022/09/30 08:56:50;;;;;;;10.00;9.00;;;40.50;2.40;;;;;;6213127;23;20888;-86
2022/09/30 08:59:33;;;;;;;9.53;8.33;;;40.40;2.00;;;;;;6213413;23;20708;-86
2022/09/30 09:02:21;;;;;;;9.73;8.93;;;40.20;2.20;;;;;;6212849;23;20768;-86
2022/09/30 09:04:59;;;;;;;10.63;8.40;;;40.00;1.20;;;;;;6213329;23;20361;-87
2022/09/30 09:08:21;;;;;;;9.97;9.27;;;40.00;1.40;;;;;;6213221;23;20407;-86
2022/09/30 09:11:15;;;;;;;10.33;9.23;;;40.00;1.60;;;;;;6211296;23;20409;-86
2022/09/30 09:13:55;;;;;;;9.30;8.53;;;40.10;1.80;;;;;;6212535;23;20411;-86
2022/09/30 09:16:36;;;;;;;10.33;9.50;;;40.20;2.10;;;;;;6212444;23;20372;-86
2022/09/30 09:19:49;;;;;;;10.17;9.20;;;40.00;1.10;;;;;;6213195;23;20740;-87
2022/09/30 09:22:38;;;;;;;8.47;7.87;;;40.00;1.00;;;;;;6212361;23;20910;-86
2022/09/30 09:28:57;;;;;;;8.70;7.90;;;39.80;1.00;;;;;;6197442;23;20387;-85
2022/09/30 09:31:26;;;;;;;8.63;7.80;;;39.70;1.00;;;;;;6212263;23;20407;-86
2022/09/30 09:34:16;;;;;;;8.33;7.63;;;39.80;1.00;;;;;;6212842;23;20369;-85
2022/09/30 09:37:10;;;;;;;8.97;8.17;;;39.70;1.00;;;;;;6186381;23;20384;-86
2022/09/30 09:40:12;;;;;;;;;;;;;;;;;;;;;
2022/09/30 09:43:07;;;;;;;8.73;8.03;;;39.70;1.00;;;;;;6212717;23;20459;-87
2022/09/30 09:46:19;;;;;;;;;;;;;;;;;;;;;
2022/09/30 09:48:56;;;;;;;9.13;8.43;;;38.90;1.00;;;;;;6213629;23;20503;-86
2022/09/30 09:51:49;;;;;;;;;;;;;;;;;;;;;
2022/09/30 09:58:19;;;;;;;8.33;7.60;;;38.60;1.00;;;;;;6190243;23;20395;-87
2022/09/30 10:03:22;;;;;;;8.90;8.00;;;38.20;1.00;;;;;;6214157;23;20866;-88
2022/09/30 10:06:11;;;;;;;8.60;7.70;;;38.00;1.00;;;;;;6214187;23;20138;-87
2022/09/30 10:15:27;;;;;;;8.27;7.57;;;38.60;1.00;;;;;;6165604;23;21203;-87
2022/09/30 10:17:59;;;;;;;7.20;6.57;;;38.90;1.00;;;;;;6201563;23;20780;-85
2022/09/30 10:21:11;;;;;;;6.97;6.37;;;38.90;1.00;;;;;;6212177;23;20364;-87
2022/09/30 10:23:39;;;;;;;6.93;6.33;;;38.80;1.00;;;;;;6184051;23;20384;-86
2022/09/30 10:26:18;;;;;;;6.10;5.50;;;38.70;1.00;;;;;;6212738;23;20376;-86
2022/09/30 10:28:54;;;;;;;5.63;5.03;;;38.60;1.00;;;;;;6186538;23;20412;-87
2022/09/30 10:31:49;;;;;;;4.60;4.20;;;38.40;1.00;;;;;;6212078;23;20446;-86
2022/09/30 10:34:30;;;;;;;4.30;3.90;;;38.30;1.00;;;;;;6212494;23;20380;-87
2022/09/30 10:37:20;;;;;;;;;;;;;;;;;;;;;
2022/09/30 10:40:09;;;;;;;5.10;4.60;;;38.10;1.00;;;;;;6211662;23;20487;-84
2022/09/30 10:42:39;;;;;;;5.10;4.60;;;38.00;1.00;;;;;;6213585;23;20398;-84
2022/09/30 10:45:18;;;;;;;;;;;;;;;;;;;;;
2022/09/30 10:48:20;;;;;;;4.03;3.70;;;38.10;1.00;;;;;;6214580;23;20440;-85
2022/09/30 10:51:05;;;;;;;;;;;;;;;;;;;;;
2022/09/30 10:53:51;;;;;;;4.77;4.00;;;38.70;1.00;;;;;;6213123;23;20436;-84
2022/09/30 10:56:54;;;;;;;4.37;3.80;;;38.80;1.00;;;;;;6214485;23;20376;-86
2022/09/30 10:59:38;;;;;;;5.47;4.97;;;38.90;1.00;;;;;;6194512;23;20500;-87
2022/09/30 11:02:22;;;;;;;4.80;4.40;;;38.90;1.00;;;;;;6213852;23;20894;-84
2022/09/30 11:05:14;;;;;;;4.40;3.53;;;38.60;1.00;;;;;;6214505;23;20721;-84
2022/09/30 11:07:47;;;;;;;6.07;4.63;;;38.50;1.00;;;;;;6213529;23;20353;-84
2022/09/30 11:10:30;;;;;;;5.50;4.60;;;38.50;1.00;;;;;;6214696;23;20415;-83
2022/09/30 11:13:15;;;;;;;5.00;4.50;;;38.40;1.00;;;;;;6213995;23;20389;-84
2022/09/30 11:16:18;;;;;;;5.40;4.43;;;38.30;1.00;;;;;;6214684;23;20741;-83
2022/09/30 11:19:04;;;;;;;5.13;4.73;;;38.10;1.00;;;;;;6201535;23;20464;-84
2022/09/30 11:21:44;;;;;;;5.60;4.40;;;38.00;1.00;;;;;;6215624;23;20402;-84
2022/09/30 11:24:12;;;;;;;5.83;5.30;;;37.70;1.00;;;;;;6214394;23;20368;-84
2022/09/30 11:26:59;;;;;;;5.07;4.67;;;37.70;1.00;;;;;;6210085;23;20385;-84
2022/09/30 11:29:42;;;;;;;5.60;5.10;;;37.70;1.00;;;;;;6212484;23;20482;-83
2022/09/30 11:32:15;;;;;;;5.37;4.63;;;37.60;1.00;;;;;;6212641;23;20395;-84
2022/09/30 11:35:14;;;;;;;12.10;7.97;;;37.40;1.00;;;;;;6212929;23;20439;-84
2022/09/30 11:38:14;;;;;;;7.00;6.40;;;37.30;1.00;;;;;;6181458;23;20885;-84
2022/09/30 11:41:07;;;;;;;6.00;5.40;;;37.40;1.00;;;;;;6212600;23;20437;-85
2022/09/30 11:44:04;;;;;;;6.73;6.10;;;37.10;1.00;;;;;;6211985;23;20431;-84
2022/09/30 11:47:19;;;;;;;7.13;5.80;;;37.00;1.00;;;;;;6210911;23;20366;-84
2022/09/30 11:49:58;;;;;;;5.40;5.00;;;36.90;1.00;;;;;;6210000;23;20405;-84
2022/09/30 11:52:26;;;;;;;5.70;5.20;;;36.90;1.00;;;;;;6212188;23;20397;-84
2022/09/30 11:55:17;;;;;;;6.60;5.57;;;36.50;1.00;;;;;;6213711;23;20426;-83
2022/09/30 11:58:04;;;;;;;5.43;5.03;;;36.30;1.00;;;;;;6213575;23;21085;-83
2022/09/30 12:00:34;;;;;;;7.07;6.47;;;36.20;1.00;;;;;;6213277;23;20444;-84
2022/09/30 12:03:18;;;;;;;6.40;5.83;;;35.90;1.00;;;;;;6212797;23;20440;-84
2022/09/30 12:06:00;;;;;;;7.53;5.37;;;35.90;1.00;;;;;;6212532;23;20392;-85
2022/09/30 12:08:48;;;;;;;6.83;5.40;;;35.80;1.00;;;;;;6212792;23;20361;-85
2022/09/30 12:11:20;;;;;;;7.53;5.53;;;35.30;1.00;;;;;;6211218;23;20890;-86
2022/09/30 12:13:53;;;;;;;5.83;5.20;;;34.60;1.00;;;;;;6213217;23;20361;-85
2022/09/30 12:16:23;;;;;;;6.17;5.60;;;34.60;1.00;;;;;;6213216;23;20361;-85
2022/09/30 12:19:13;;;;;;;5.83;5.23;;;34.40;1.00;;;;;;6213696;23;20377;-85
2022/09/30 12:21:52;;;;;;;8.60;7.90;;;33.10;1.00;;;;;;6212939;23;20411;-84
2022/09/30 12:24:40;;;;;;;6.43;5.83;;;32.00;1.00;;;;;;6213762;23;20375;-85
2022/09/30 12:27:14;;;;;;;5.73;5.23;;;32.20;1.00;;;;;;6214050;23;20361;-84
2022/09/30 12:33:01;;;;;;;5.57;5.07;;;32.60;1.00;;;;;;6213868;23;20447;-84
2022/09/30 12:35:48;;;;;;;5.60;5.10;;;33.10;1.00;;;;;;6214250;23;20354;-84
2022/09/30 12:38:52;;;;;;;6.50;5.47;;;33.20;1.00;;;;;;6212903;23;20724;-85
2022/09/30 12:41:44;;;;;;;6.50;5.97;;;33.00;1.00;;;;;;6212928;23;20404;-84
2022/09/30 12:44:54;;;;;;;5.90;5.30;;;32.40;1.00;;;;;;6214070;23;20349;-85
2022/09/30 12:47:44;;;;;;;6.33;5.37;;;32.20;1.00;;;;;;6158295;23;20423;-84
2022/09/30 12:50:18;;;;;;;5.80;5.30;;;31.50;1.00;;;;;;6187297;23;20440;-85
2022/09/30 12:52:47;;;;;;;5.87;5.27;;;31.50;1.00;;;;;;6214762;23;20480;-85
2022/09/30 12:55:23;;;;;;;5.90;5.40;;;31.60;1.00;;;;;;6214608;23;20874;-85
2022/09/30 12:58:00;;;;;;;6.33;5.20;;;31.60;1.00;;;;;;6187726;23;20426;-86
2022/09/30 13:00:38;;;;;;;5.33;4.93;;;31.60;1.00;;;;;;6186056;23;20922;-85
2022/09/30 13:03:26;;;;;;;6.53;5.50;;;31.10;1.00;;;;;;6213736;23;20392;-86
2022/09/30 13:05:58;;;;;;;6.50;5.77;;;31.10;1.00;;;;;;6197272;23;20377;-86
2022/09/30 13:08:36;;;;;;;5.47;4.97;;;31.00;1.00;;;;;;6216670;23;20380;-86
2022/09/30 13:11:07;;;;;;;10.23;5.60;;;31.00;1.00;;;;;;6211179;23;20446;-87
2022/09/30 13:13:59;;;;;;;6.93;6.30;;;31.10;1.00;;;;;;6212672;23;20357;-85
2022/09/30 13:17:03;;;;;;;7.37;6.77;;;31.10;1.00;;;;;;6214649;23;20387;-84
2022/09/30 13:19:44;;;;;;;7.50;6.70;;;30.00;1.00;;;;;;6214468;23;20385;-85
2022/09/30 13:25:01;;;;;;;7.00;6.40;;;29.40;1.00;;;;;;6211540;23;20368;-85
2022/09/30 13:27:43;;;;;;;6.60;4.97;;;29.50;1.00;;;;;;6183556;23;20452;-84
2022/09/30 13:30:17;;;;;;;5.50;5.00;;;29.60;1.00;;;;;;6212388;23;20414;-84
2022/09/30 13:33:33;;;;;;;;;;;;;;;;;;;;;
2022/09/30 13:39:45;;;;;;;9.87;4.40;;;29.70;1.00;;;;;;6196057;23;20385;-85
2022/09/30 13:42:16;;;;;;;4.20;3.80;;;29.50;1.00;;;;;;6211655;23;20446;-85
2022/09/30 13:45:22;;;;;;;3.40;2.53;;;29.50;1.00;;;;;;6187365;23;20409;-85
2022/09/30 13:54:46;;;;;;;;;;;;;;;;;;;;;
2022/09/30 14:00:54;;;;;;;;;;;;;;;;;;;;;
2022/09/30 14:06:55;;;;;;;;;;;;;;;;;;;;;
2022/09/30 14:09:52;;;;;;;3.20;2.10;;;28.10;1.00;;;;;;6185134;23;20510;-85
2022/09/30 14:13:05;;;;;;;2.10;1.90;;;27.90;1.00;;;;;;6212737;23;20434;-84
2022/09/30 14:16:08;;;;;;;2.07;1.73;;;27.90;1.00;;;;;;6206453;23;20381;-86
2022/09/30 14:18:52;;;;;;;3.17;2.17;;;27.80;1.00;;;;;;6210383;23;20381;-85
2022/09/30 14:21:35;;;;;;;4.33;3.90;;;27.70;1.00;;;;;;6211976;23;21050;-86
2022/09/30 14:24:16;;;;;;;4.53;3.10;;;27.10;1.00;;;;;;6212792;23;20823;-86
2022/09/30 14:26:44;;;;;;;2.97;2.17;;;26.80;1.00;;;;;;6212347;23;20364;-87
2022/09/30 14:29:32;;;;;;;4.00;2.43;;;26.50;1.00;;;;;;6211481;23;20424;-86
2022/09/30 14:32:08;;;;;;;3.10;2.20;;;26.50;1.00;;;;;;6210904;23;20735;-86
2022/09/30 14:34:52;;;;;;;;;;;;;;;;;;;;;
2022/09/30 14:37:50;;;;;;;2.83;2.47;;;26.70;1.00;;;;;;6212617;23;20452;-85
2022/09/30 14:40:36;;;;;;;;;;;;;;;;;;;;;
2022/09/30 14:43:14;;;;;;;7.53;2.83;;;26.10;1.00;;;;;;6214400;23;20456;-86
2022/09/30 14:49:05;;;;;;;;;;;;;;;;;;;;;
2022/09/30 14:52:44;;;;;;;2.77;1.93;;;25.30;1.00;;;;;;6215209;23;20467;-87
2022/09/30 14:58:21;;;;;;;3.40;1.57;;;25.20;1.60;;;;;;6214639;23;20357;-86
2022/09/30 15:01:42;;;;;;;;;;;;;;;;;;;;;
2022/09/30 15:05:23;;;;;;;;;;;;;;;;;;;;;
2022/09/30 15:11:27;;;;;;;6.97;1.50;;;25.10;2.70;;;;;;6094834;23;20412;-87
2022/09/30 15:14:32;;;;;;;;;;;;;;;;;;;;;
2022/09/30 15:21:04;;;;;;;;;;;;;;;;;;;;;
2022/09/30 15:28:05;;;;;;;;;;;;;;;;;;;;;
2022/09/30 15:38:09;;;;;;;;;;;;;;;;;;;;;
2022/09/30 15:44:40;;;;;;;4.10;2.33;;;22.30;2.50;;;;;;6182960;23;20387;-85
2022/09/30 15:47:10;;;;;;;3.27;1.60;;;22.10;2.90;;;;;;6212683;23;20700;-86
2022/09/30 15:49:39;;;;;;;2.40;1.70;;;21.90;2.30;;;;;;6213382;23;20414;-87
2022/09/30 15:52:47;;;;;;;2.17;1.13;;;21.80;2.20;;;;;;6189404;23;20408;-87
2022/09/30 15:55:40;;;;;;;1.73;1.40;;;21.60;2.70;;;;;;6196625;23;20380;-86
2022/09/30 15:58:40;;;;;;;1.80;1.20;;;21.40;2.20;;;;;;6185884;23;20384;-88
2022/09/30 16:01:23;;;;;;;1.60;1.17;;;21.30;2.70;;;;;;6187218;23;20413;-88
2022/09/30 16:03:54;;;;;;;2.80;1.33;;;21.20;3.50;;;;;;6185739;23;20385;-86
2022/09/30 16:06:49;;;;;;;2.47;1.83;;;21.00;4.00;;;;;;6214330;23;20382;-86
2022/09/30 16:09:33;;;;;;;2.00;0.90;;;21.00;4.60;;;;;;6198869;23;20478;-86
2022/09/30 16:12:08;;;;;;;1.50;1.20;;;20.90;4.60;;;;;;6186589;23;20431;-85
2022/09/30 16:15:35;;;;;;;2.03;0.90;;;20.90;5.40;;;;;;6187527;23;20386;-86
2022/09/30 16:18:16;;;;;;;;;;;;;;;;;;;;;
2022/09/30 16:24:38;;;;;;;2.27;1.03;;;20.70;7.00;;;;;;6193282;23;20385;-86
2022/09/30 16:31:15;;;;;;;;;;;;;;;;;;;;;
2022/09/30 16:34:42;;;;;;;1.40;1.00;;;20.40;8.90;;;;;;6213744;23;20772;-86
2022/09/30 16:37:42;;;;;;;;;;;;;;;;;;;;;
2022/09/30 16:40:42;;;;;;;;;;;;;;;;;;;;;
2022/09/30 16:46:26;;;;;;;;;;;;;;;;;;;;;
2022/09/30 16:59:12;;;;;;;;;;;;;;;;;;;;;
2022/09/30 17:01:42;;;;;;;8.27;3.23;;;19.20;11.10;;;;;;6212119;23;20465;-86
2022/09/30 17:04:42;;;;;;;;;;;;;;;;;;;;;
2022/09/30 17:08:01;;;;;;;;;;;;;;;;;;;;;
2022/09/30 17:14:23;;;;;;;2.73;1.50;;;18.70;11.90;;;;;;6201259;23;20387;-86
2022/09/30 17:17:37;;;;;;;;;;;;;;;;;;;;;
2022/09/30 17:20:55;;;;;;;;;;;;;;;;;;;;;
2022/09/30 17:24:09;;;;;;;;;;;;;;;;;;;;;
2022/09/30 17:29:31;;;;;;;4.03;2.23;;;18.20;16.50;;;;;;6202712;23;20986;-87
2022/09/30 17:31:56;;;;;;;2.60;1.83;;;18.10;15.90;;;;;;6212975;23;20402;-86
2022/09/30 17:34:22;;;;;;;2.30;1.90;;;18.00;16.30;;;;;;6210598;23;20186;-86
2022/09/30 17:36:48;;;;;;;2.93;1.40;;;17.90;16.70;;;;;;6212700;23;20151;-86
2022/09/30 17:39:13;;;;;;;3.07;1.60;;;17.80;17.30;;;;;;6212020;23;20611;-86
2022/09/30 17:52:12;;;;;;;8.87;2.87;;;17.50;20.00;;;;;;6198072;23;20725;-86
2022/09/30 18:08:28;;;;;;;;;;;;;;;;;;;;;
2022/09/30 18:11:24;;;;;;;4.57;3.87;;;17.10;24.40;;;;;;6207739;23;20772;-88
2022/09/30 18:28:04;;;;;;;2.20;1.87;;;16.60;41.20;;;;;;6149972;23;20391;-87
2022/09/30 18:31:27;;;;;;;;;;;;;;;;;;;;;
2022/09/30 18:52:48;;;;;;;;;;;;;;;;;;;;;
